createdAt,value
2022-09-24T00:01:36.678Z,53.54
2022-09-24T00:04:06.843Z,53.65
2022-09-24T00:06:42.370Z,53.97
2022-09-24T00:09:10.438Z,53.68
2022-09-24T00:11:39.110Z,54.04
2022-09-24T00:14:07.202Z,54.11
2022-09-24T00:16:35.128Z,54.02
2022-09-24T00:19:04.305Z,54.33
2022-09-24T00:21:36.455Z,53.99
2022-09-24T00:24:33.189Z,53.96
2022-09-24T00:27:01.026Z,53.43
2022-09-24T00:29:28.018Z,53.26
2022-09-24T00:31:55.103Z,53.76
2022-09-24T00:34:22.330Z,53.53
2022-09-24T00:36:49.337Z,53.74
2022-09-24T00:39:16.781Z,53.96
2022-09-24T00:41:48.121Z,53.70
2022-09-24T00:44:40.953Z,53.69
2022-09-24T00:47:23.519Z,53.53
2022-09-24T00:49:51.368Z,53.78
2022-09-24T00:52:19.931Z,54.06
2022-09-24T00:54:47.336Z,54.20
2022-09-24T00:57:14.807Z,54.40
2022-09-24T00:59:43.877Z,54.32
2022-09-24T01:02:11.146Z,54.31
2022-09-24T01:04:38.359Z,54.11
2022-09-24T01:07:05.237Z,54.28
2022-09-24T01:09:32.432Z,54.40
2022-09-24T01:12:18.991Z,53.92
2022-09-24T01:15:41.033Z,54.15
2022-09-24T01:18:19.754Z,54.43
2022-09-24T01:21:05.227Z,54.68
2022-09-24T01:23:48.995Z,54.54
2022-09-24T01:26:37.282Z,54.26
2022-09-24T01:29:21.830Z,54.50
2022-09-24T01:32:02.196Z,54.46
2022-09-24T01:34:35.231Z,54.49
2022-09-24T01:37:03.719Z,54.58
2022-09-24T01:39:33.372Z,54.33
2022-09-24T01:42:01.084Z,54.46
2022-09-24T01:44:28.188Z,54.71
2022-09-24T01:46:55.858Z,54.98
2022-09-24T01:49:22.993Z,54.90
2022-09-24T01:51:58.602Z,55.04
2022-09-24T01:54:28.583Z,55.10
2022-09-24T01:57:17.547Z,54.98
2022-09-24T01:59:49.994Z,54.78
2022-09-24T02:02:27.880Z,55.05
2022-09-24T02:05:03.688Z,55.40
2022-09-24T02:07:54.959Z,55.29
2022-09-24T02:10:21.958Z,55.16
2022-09-24T02:12:58.883Z,55.54
2022-09-24T02:15:32.868Z,55.29
2022-09-24T02:18:06.640Z,55.12
2022-09-24T02:20:36.303Z,54.87
2022-09-24T02:23:05.494Z,55.19
2022-09-24T02:25:43.107Z,55.15
2022-09-24T02:28:10.302Z,55.35
2022-09-24T02:30:46.752Z,55.21
2022-09-24T02:33:34.455Z,54.82
2022-09-24T02:36:01.776Z,54.99
2022-09-24T02:38:28.763Z,55.17
2022-09-24T02:40:56.536Z,55.05
2022-09-24T02:43:23.607Z,55.44
2022-09-24T02:45:50.532Z,55.29
2022-09-24T02:48:17.521Z,55.48
2022-09-24T02:50:44.433Z,55.50
2022-09-24T02:53:11.298Z,55.25
2022-09-24T02:55:38.188Z,55.57
2022-09-24T02:58:05.180Z,55.78
2022-09-24T03:00:32.110Z,55.74
2022-09-24T03:02:59.343Z,55.94
2022-09-24T03:05:26.350Z,56.20
2022-09-24T03:07:53.251Z,56.11
2022-09-24T03:10:20.114Z,55.98
2022-09-24T03:12:47.015Z,55.73
2022-09-24T03:15:14.012Z,56.25
2022-09-24T03:17:40.982Z,56.34
2022-09-24T03:20:08.385Z,56.23
2022-09-24T03:22:35.374Z,56.43
2022-09-24T03:25:03.296Z,56.60
2022-09-24T03:27:30.226Z,56.36
2022-09-24T03:30:15.428Z,56.14
2022-09-24T03:32:42.142Z,56.78
2022-09-24T03:35:11.434Z,56.76
2022-09-24T03:37:38.386Z,57.08
2022-09-24T03:40:08.058Z,56.57
2022-09-24T03:42:35.293Z,56.79
2022-09-24T03:45:02.244Z,56.65
2022-09-24T03:47:29.437Z,56.38
2022-09-24T03:49:56.406Z,57.11
2022-09-24T03:52:24.259Z,57.07
2022-09-24T03:54:51.127Z,57.09
2022-09-24T03:57:18.202Z,57.18
2022-09-24T03:59:45.756Z,56.94
2022-09-24T04:02:13.157Z,57.17
2022-09-24T04:04:40.259Z,57.38
2022-09-24T04:07:07.166Z,57.38
2022-09-24T04:09:34.109Z,57.28
2022-09-24T04:12:01.410Z,57.26
2022-09-24T04:14:28.412Z,57.38
2022-09-24T04:16:55.383Z,57.37
2022-09-24T04:19:22.322Z,57.26
2022-09-24T04:21:49.268Z,57.54
2022-09-24T04:24:16.431Z,57.54
2022-09-24T04:26:43.335Z,57.83
2022-09-24T04:29:10.429Z,57.82
2022-09-24T04:31:37.457Z,57.69
2022-09-24T04:34:04.434Z,57.49
2022-09-24T04:36:31.312Z,58.25
2022-09-24T04:38:58.230Z,58.34
2022-09-24T04:41:25.130Z,58.90
2022-09-24T04:43:51.991Z,58.53
2022-09-24T04:46:19.319Z,58.50
2022-09-24T04:48:46.269Z,58.86
2022-09-24T04:51:13.265Z,59.03
2022-09-24T04:53:40.779Z,59.53
2022-09-24T04:56:12.197Z,59.50
2022-09-24T04:58:39.784Z,60.00
2022-09-24T05:01:06.858Z,60.48
2022-09-24T05:03:33.815Z,61.03
2022-09-24T05:06:02.038Z,61.57
2022-09-24T05:08:28.928Z,62.78
2022-09-24T05:10:55.855Z,62.81
2022-09-24T05:13:22.957Z,62.39
2022-09-24T05:15:49.933Z,63.19
2022-09-24T05:18:16.854Z,63.47
2022-09-24T05:20:43.721Z,63.15
2022-09-24T05:23:10.820Z,62.96
2022-09-24T05:25:57.625Z,63.67
2022-09-24T05:28:24.725Z,64.10
2022-09-24T05:30:51.731Z,64.14
2022-09-24T05:33:18.851Z,64.04
2022-09-24T05:35:52.863Z,63.33
2022-09-24T05:38:19.882Z,63.62
2022-09-24T05:40:50.199Z,63.75
2022-09-24T05:43:19.511Z,64.85
2022-09-24T05:45:46.572Z,65.45
2022-09-24T05:48:13.701Z,65.00
2022-09-24T05:50:40.569Z,64.27
2022-09-24T05:53:07.814Z,64.91
2022-09-24T05:55:35.189Z,64.98
2022-09-24T05:58:07.478Z,65.59
2022-09-24T06:00:36.230Z,65.22
2022-09-24T06:03:06.778Z,65.41
2022-09-24T06:05:35.949Z,64.37
2022-09-24T06:08:08.199Z,64.45
2022-09-24T06:10:37.228Z,64.28
2022-09-24T06:13:05.239Z,63.98
2022-09-24T06:15:32.151Z,63.50
2022-09-24T06:17:59.094Z,63.94
2022-09-24T06:20:26.147Z,64.27
2022-09-24T06:22:57.616Z,64.43
2022-09-24T06:25:26.030Z,63.25
2022-09-24T06:28:01.607Z,62.78
2022-09-24T06:30:46.354Z,63.18
2022-09-24T06:33:14.297Z,63.23
2022-09-24T06:35:43.509Z,62.12
2022-09-24T06:38:17.007Z,62.71
2022-09-24T06:40:51.268Z,62.95
2022-09-24T06:43:18.273Z,62.45
2022-09-24T06:45:45.909Z,61.42
2022-09-24T06:48:14.548Z,61.40
2022-09-24T06:50:43.785Z,59.61
2022-09-24T06:53:12.611Z,59.59
2022-09-24T06:55:39.677Z,58.77
2022-09-24T06:58:20.174Z,59.33
2022-09-24T07:00:59.042Z,60.15
2022-09-24T07:03:28.024Z,59.56
2022-09-24T07:05:55.538Z,57.88
2022-09-24T07:08:22.610Z,57.45
2022-09-24T07:10:50.324Z,56.39
2022-09-24T07:13:17.508Z,57.16
2022-09-24T07:15:45.030Z,56.38
2022-09-24T07:18:12.712Z,57.38
2022-09-24T07:20:40.391Z,56.93
2022-09-24T07:23:09.524Z,57.32
2022-09-24T07:25:37.548Z,55.54
2022-09-24T07:28:07.763Z,54.90
2022-09-24T07:30:35.982Z,54.31
2022-09-24T07:33:03.257Z,49.66
2022-09-24T07:35:30.441Z,51.89
2022-09-24T07:38:02.394Z,52.61
2022-09-24T07:40:31.277Z,52.82
2022-09-24T07:42:59.357Z,50.24
2022-09-24T07:45:29.097Z,50.66
2022-09-24T07:48:03.816Z,51.38
2022-09-24T07:50:34.050Z,51.51
2022-09-24T07:53:01.257Z,45.71
2022-09-24T07:55:28.223Z,48.35
2022-09-24T07:57:56.875Z,50.32
2022-09-24T08:00:25.324Z,50.70
2022-09-24T08:02:53.975Z,49.50
2022-09-24T08:05:21.082Z,46.22
2022-09-24T08:07:55.926Z,47.37
2022-09-24T08:10:24.149Z,49.58
2022-09-24T08:12:51.355Z,48.04
2022-09-24T08:15:19.578Z,47.92
2022-09-24T08:17:46.497Z,49.10
2022-09-24T08:20:14.236Z,49.46
2022-09-24T08:22:41.282Z,49.81
2022-09-24T08:25:08.743Z,48.45
2022-09-24T08:27:37.628Z,48.38
2022-09-24T08:30:05.717Z,47.90
2022-09-24T08:32:32.715Z,47.99
2022-09-24T08:34:59.678Z,47.02
2022-09-24T08:37:28.319Z,47.12
2022-09-24T08:39:55.327Z,47.41
2022-09-24T08:42:49.557Z,45.97
2022-09-24T08:45:36.321Z,43.94
2022-09-24T08:48:15.290Z,45.86
2022-09-24T08:50:52.547Z,44.22
2022-09-24T08:53:27.670Z,45.13
2022-09-24T08:55:58.186Z,44.84
2022-09-24T08:58:45.834Z,43.26
2022-09-24T09:01:21.574Z,44.81
2022-09-24T09:04:06.233Z,43.81
2022-09-24T09:06:52.028Z,44.41
2022-09-24T09:09:26.204Z,39.23
2022-09-24T09:12:01.053Z,43.40
2022-09-24T09:14:46.134Z,43.32
2022-09-24T09:17:25.481Z,42.22
2022-09-24T09:19:58.249Z,40.40
2022-09-24T09:22:34.238Z,41.48
2022-09-24T09:25:15.780Z,38.71
2022-09-24T09:27:42.823Z,39.50
2022-09-24T09:30:16.236Z,39.31
2022-09-24T09:32:43.095Z,39.76
2022-09-24T09:35:22.331Z,39.49
2022-09-24T09:38:07.323Z,40.05
2022-09-24T09:40:46.086Z,39.29
2022-09-24T09:43:15.465Z,37.09
2022-09-24T09:45:56.526Z,39.19
2022-09-24T09:48:28.350Z,38.71
2022-09-24T09:51:05.151Z,38.96
2022-09-24T09:53:32.417Z,39.63
2022-09-24T09:56:03.123Z,38.71
2022-09-24T09:58:47.542Z,38.57
2022-09-24T10:01:18.736Z,36.84
2022-09-24T10:03:52.029Z,37.75
2022-09-24T10:06:27.746Z,38.55
2022-09-24T10:09:05.991Z,37.40
2022-09-24T10:11:33.007Z,37.49
2022-09-24T10:14:04.986Z,35.47
2022-09-24T10:16:38.270Z,37.67
2022-09-24T10:19:21.691Z,38.58
2022-09-24T10:21:50.557Z,38.19
2022-09-24T10:24:21.548Z,37.10
2022-09-24T10:26:49.690Z,36.69
2022-09-24T10:29:49.248Z,36.83
2022-09-24T10:32:29.629Z,36.18
2022-09-24T10:35:01.507Z,36.07
2022-09-24T10:37:30.164Z,37.68
2022-09-24T10:40:02.192Z,36.15
2022-09-24T10:42:31.160Z,36.04
2022-09-24T10:45:03.693Z,36.67
2022-09-24T10:47:45.537Z,36.64
2022-09-24T10:50:31.659Z,36.23
2022-09-24T10:53:09.019Z,35.23
2022-09-24T10:56:04.067Z,34.79
2022-09-24T10:58:48.325Z,34.69
2022-09-24T11:01:42.798Z,34.23
2022-09-24T11:04:28.438Z,34.69
2022-09-24T11:07:42.989Z,33.20
2022-09-24T11:10:50.050Z,33.49
2022-09-24T11:13:36.246Z,32.84
2022-09-24T11:16:21.340Z,33.07
2022-09-24T11:19:00.846Z,34.06
2022-09-24T11:21:53.661Z,28.67
2022-09-24T11:24:34.266Z,31.33
2022-09-24T11:27:33.747Z,31.39
2022-09-24T11:30:03.263Z,32.35
2022-09-24T11:33:01.835Z,30.83
2022-09-24T11:35:35.681Z,34.40
2022-09-24T11:38:10.510Z,33.56
2022-09-24T11:40:47.730Z,34.51
2022-09-24T11:43:18.233Z,33.81
2022-09-24T11:46:23.844Z,35.94
2022-09-24T11:49:15.393Z,33.54
2022-09-24T11:51:42.237Z,34.96
2022-09-24T11:54:40.440Z,35.34
2022-09-24T11:57:16.259Z,35.57
2022-09-24T11:59:49.402Z,35.60
2022-09-24T12:02:24.071Z,35.56
2022-09-24T12:05:29.773Z,34.33
2022-09-24T12:08:02.652Z,34.46
2022-09-24T12:10:37.528Z,35.00
2022-09-24T12:13:20.542Z,34.58
2022-09-24T12:16:08.419Z,35.42
2022-09-24T12:18:45.440Z,34.99
2022-09-24T12:21:19.141Z,35.57
2022-09-24T12:23:49.407Z,36.07
2022-09-24T12:26:17.974Z,33.81
2022-09-24T12:29:48.284Z,35.90
2022-09-24T12:32:57.147Z,34.48
2022-09-24T12:35:42.888Z,33.67
2022-09-24T12:38:37.947Z,33.18
2022-09-24T12:41:20.480Z,34.66
2022-09-24T12:43:54.161Z,32.92
2022-09-24T12:46:26.444Z,34.55
2022-09-24T12:48:54.772Z,32.71
2022-09-24T12:51:22.944Z,30.88
2022-09-24T12:54:06.073Z,33.71
2022-09-24T12:56:35.052Z,32.53
2022-09-24T12:59:05.813Z,33.44
2022-09-24T13:01:34.549Z,32.63
2022-09-24T13:04:14.870Z,31.30
2022-09-24T13:06:45.139Z,30.67
2022-09-24T13:09:35.970Z,30.71
2022-09-24T13:12:03.086Z,31.06
2022-09-24T13:14:33.500Z,31.97
2022-09-24T13:17:06.951Z,32.19
2022-09-24T13:19:44.545Z,30.89
2022-09-24T13:22:32.070Z,30.92
2022-09-24T13:25:07.877Z,32.89
2022-09-24T13:27:38.066Z,30.99
2022-09-24T13:30:18.576Z,33.33
2022-09-24T13:32:59.004Z,34.47
2022-09-24T13:35:35.173Z,32.37
2022-09-24T13:38:20.989Z,33.80
2022-09-24T13:41:04.586Z,33.92
2022-09-24T13:44:10.624Z,32.67
2022-09-24T13:46:41.409Z,31.40
2022-09-24T13:49:19.106Z,30.64
2022-09-24T13:51:51.536Z,30.85
2022-09-24T13:54:26.818Z,30.89
2022-09-24T13:57:10.301Z,31.49
2022-09-24T13:59:37.710Z,31.80
2022-09-24T14:02:22.568Z,31.69
2022-09-24T14:04:58.389Z,31.34
2022-09-24T14:07:27.215Z,30.81
2022-09-24T14:10:07.367Z,34.25
2022-09-24T14:12:34.411Z,33.04
2022-09-24T14:15:04.600Z,33.47
2022-09-24T14:17:31.645Z,32.44
2022-09-24T14:19:59.470Z,33.62
2022-09-24T14:22:39.358Z,31.82
2022-09-24T14:25:22.488Z,33.13
2022-09-24T14:27:51.805Z,34.48
2022-09-24T14:30:20.176Z,33.82
2022-09-24T14:32:53.795Z,32.31
2022-09-24T14:35:31.638Z,32.51
2022-09-24T14:38:04.582Z,33.55
2022-09-24T14:40:40.894Z,33.84
2022-09-24T14:43:36.680Z,34.14
2022-09-24T14:46:17.574Z,34.21
2022-09-24T14:48:44.808Z,34.70
2022-09-24T14:51:26.888Z,35.24
2022-09-24T14:54:19.764Z,35.69
2022-09-24T14:56:46.915Z,35.85
2022-09-24T14:59:28.404Z,35.79
2022-09-24T15:02:11.623Z,36.52
2022-09-24T15:04:38.729Z,36.70
2022-09-24T15:07:05.864Z,37.33
2022-09-24T15:09:32.963Z,36.96
2022-09-24T15:12:10.262Z,37.53
2022-09-24T15:14:37.798Z,37.82
2022-09-24T15:17:21.577Z,37.74
2022-09-24T15:19:48.721Z,37.98
2022-09-24T15:22:15.727Z,38.20
2022-09-24T15:24:42.797Z,38.28
2022-09-24T15:27:23.750Z,37.96
2022-09-24T15:29:51.130Z,38.75
2022-09-24T15:32:20.616Z,38.57
2022-09-24T15:34:48.186Z,38.81
2022-09-24T15:37:24.049Z,38.95
2022-09-24T15:39:52.843Z,38.91
2022-09-24T15:42:24.670Z,39.45
2022-09-24T15:44:52.382Z,39.27
2022-09-24T15:47:19.396Z,39.68
2022-09-24T15:49:46.585Z,39.80
2022-09-24T15:52:28.470Z,39.72
2022-09-24T15:54:58.209Z,40.19
2022-09-24T15:57:28.436Z,40.21
2022-09-24T15:59:55.512Z,40.28
2022-09-24T16:02:27.416Z,40.11
2022-09-24T16:04:54.836Z,40.52
2022-09-24T16:07:21.769Z,40.78
2022-09-24T16:09:48.941Z,40.93
2022-09-24T16:12:17.610Z,40.62
2022-09-24T16:14:45.109Z,39.97
2022-09-24T16:17:12.909Z,40.16
2022-09-24T16:19:39.856Z,40.12
2022-09-24T16:22:06.812Z,40.41
2022-09-24T16:24:35.049Z,39.65
2022-09-24T16:27:02.157Z,40.54
2022-09-24T16:29:29.094Z,40.78
2022-09-24T16:31:56.127Z,40.94
2022-09-24T16:34:23.202Z,40.95
2022-09-24T16:36:50.261Z,41.08
2022-09-24T16:39:17.269Z,40.82
2022-09-24T16:41:44.592Z,41.47
2022-09-24T16:44:15.352Z,41.59
2022-09-24T16:46:45.985Z,41.58
2022-09-24T16:49:13.178Z,41.91
2022-09-24T16:51:40.477Z,41.83
2022-09-24T16:54:07.608Z,42.53
2022-09-24T16:56:34.761Z,42.36
2022-09-24T16:59:01.764Z,42.67
2022-09-24T17:01:28.791Z,42.73
2022-09-24T17:03:57.808Z,42.63
2022-09-24T17:06:30.378Z,42.85
2022-09-24T17:09:16.512Z,43.15
2022-09-24T17:11:46.810Z,43.28
2022-09-24T17:14:14.882Z,43.44
2022-09-24T17:16:42.962Z,43.46
2022-09-24T17:19:11.350Z,44.04
2022-09-24T17:35:10.644Z,45.05
2022-09-24T17:37:37.620Z,45.04
2022-09-24T17:40:05.279Z,45.26
2022-09-24T17:42:33.977Z,45.83
2022-09-24T17:45:01.024Z,45.92
2022-09-24T17:47:47.978Z,45.99
2022-09-24T17:50:16.222Z,46.07
2022-09-24T17:52:43.169Z,46.20
2022-09-24T17:55:10.147Z,46.15
2022-09-24T17:57:37.666Z,46.37
2022-09-24T18:00:06.052Z,46.68
2022-09-24T18:02:38.733Z,46.93
2022-09-24T18:05:07.523Z,46.77
2022-09-24T18:07:34.579Z,46.90
2022-09-24T18:10:01.592Z,46.95
2022-09-24T18:12:28.722Z,47.36
2022-09-24T18:14:55.706Z,47.64
2022-09-24T18:17:22.826Z,47.42
2022-09-24T18:19:49.753Z,47.48
2022-09-24T18:22:16.803Z,47.45
2022-09-24T18:24:44.705Z,47.71
2022-09-24T18:27:15.338Z,48.25
2022-09-24T18:29:44.330Z,48.17
2022-09-24T18:32:11.646Z,48.26
2022-09-24T18:34:38.609Z,48.37
2022-09-24T18:37:06.146Z,48.70
2022-09-24T18:39:33.237Z,48.29
2022-09-24T18:42:00.223Z,48.52
2022-09-24T18:44:27.243Z,48.58
2022-09-24T18:46:54.341Z,48.61
2022-09-24T18:49:21.572Z,48.50
2022-09-24T18:51:49.364Z,48.66
2022-09-24T18:54:18.473Z,48.91
2022-09-24T18:56:46.134Z,49.26
2022-09-24T18:59:16.142Z,49.21
2022-09-24T19:01:44.503Z,49.37
2022-09-24T19:04:13.475Z,49.15
2022-09-24T19:06:43.438Z,49.28
2022-09-24T19:09:12.512Z,49.38
2022-09-24T19:11:40.673Z,49.38
2022-09-24T19:14:07.934Z,49.69
2022-09-24T19:16:34.998Z,49.81
2022-09-24T19:19:02.074Z,49.89
2022-09-24T19:21:29.344Z,49.83
2022-09-24T19:23:58.928Z,50.01
2022-09-24T19:26:29.910Z,50.21
2022-09-24T19:28:57.844Z,50.08
2022-09-24T19:31:29.530Z,50.19
2022-09-24T19:33:57.558Z,50.19
2022-09-24T19:36:24.767Z,50.19
2022-09-24T19:38:52.190Z,50.18
2022-09-24T19:41:27.651Z,50.14
2022-09-24T19:43:57.164Z,50.05
2022-09-24T19:46:26.486Z,50.11
2022-09-24T19:48:55.894Z,50.36
2022-09-24T19:51:25.891Z,50.41
2022-09-24T19:53:55.184Z,50.30
2022-09-24T19:56:25.584Z,50.33
2022-09-24T19:58:59.007Z,50.34
2022-09-24T20:01:31.434Z,50.36
2022-09-24T20:04:02.255Z,50.52
2022-09-24T20:06:33.907Z,50.63
2022-09-24T20:09:01.314Z,50.49
2022-09-24T20:11:29.527Z,50.20
2022-09-24T20:13:57.257Z,50.05
2022-09-24T20:16:26.850Z,50.55
2022-09-24T20:18:57.793Z,50.52
2022-09-24T20:21:27.889Z,50.48
2022-09-24T20:23:57.676Z,50.24
2022-09-24T20:26:44.219Z,50.38
2022-09-24T20:29:13.243Z,50.53
2022-09-24T20:31:53.937Z,50.82
2022-09-24T20:34:28.640Z,50.89
2022-09-24T20:36:59.286Z,51.17
2022-09-24T20:39:26.481Z,51.21
2022-09-24T20:41:53.679Z,51.25
2022-09-24T20:44:22.191Z,51.27
2022-09-24T20:46:49.344Z,51.15
2022-09-24T20:49:23.488Z,51.24
2022-09-24T20:51:56.498Z,51.21
2022-09-24T20:54:28.512Z,51.21
2022-09-24T20:56:56.381Z,51.41
2022-09-24T20:59:25.714Z,51.64
2022-09-24T21:01:54.199Z,51.41
2022-09-24T21:04:44.499Z,51.34
2022-09-24T21:07:11.544Z,51.54
2022-09-24T21:09:38.559Z,51.83
2022-09-24T21:12:06.249Z,51.88
2022-09-24T21:14:35.633Z,51.82
2022-09-24T21:17:03.722Z,51.94
2022-09-24T21:19:32.550Z,51.62
2022-09-24T21:22:01.808Z,51.46
2022-09-24T21:24:31.382Z,51.68
2022-09-24T21:26:59.659Z,51.83
2022-09-24T21:29:26.757Z,51.55
2022-09-24T21:31:53.947Z,51.68
2022-09-24T21:34:21.219Z,52.03
2022-09-24T21:36:48.381Z,51.71
2022-09-24T21:39:26.887Z,51.91
2022-09-24T21:41:55.613Z,51.89
2022-09-24T21:44:22.777Z,51.99
2022-09-24T21:46:52.550Z,51.80
2022-09-24T21:49:20.058Z,51.56
2022-09-24T21:51:47.231Z,51.50
2022-09-24T21:54:17.358Z,51.64
2022-09-24T21:56:45.507Z,51.56
2022-09-24T21:59:31.656Z,51.65
2022-09-24T22:01:59.502Z,51.86
2022-09-24T22:04:27.748Z,51.87
2022-09-24T22:06:54.807Z,51.90
2022-09-24T22:09:24.194Z,51.66
2022-09-24T22:11:52.759Z,51.76
2022-09-24T22:14:19.752Z,51.60
2022-09-24T22:16:47.200Z,51.93
2022-09-24T22:19:14.299Z,51.96
2022-09-24T22:21:41.460Z,52.15
2022-09-24T22:24:08.622Z,51.98
2022-09-24T22:26:35.773Z,52.14
2022-09-24T22:29:04.066Z,52.04
2022-09-24T22:31:32.247Z,51.91
2022-09-24T22:34:18.232Z,52.83
2022-09-24T22:36:45.371Z,52.78
2022-09-24T22:39:12.326Z,52.54
2022-09-24T22:41:40.246Z,53.66
2022-09-24T22:44:07.818Z,53.66
2022-09-24T22:46:36.506Z,53.87
2022-09-24T22:49:05.646Z,53.35
2022-09-24T22:51:33.807Z,53.18
2022-09-24T22:54:01.103Z,53.41
2022-09-24T22:56:28.637Z,53.21
2022-09-24T22:59:00.994Z,53.24
2022-09-24T23:01:34.893Z,53.48
2022-09-24T23:04:02.818Z,53.55
2022-09-24T23:06:31.514Z,53.45
2022-09-24T23:08:58.831Z,52.89
2022-09-24T23:11:29.289Z,52.70
2022-09-24T23:14:05.366Z,52.39
2022-09-24T23:16:35.146Z,52.76
2022-09-24T23:19:05.880Z,52.57
2022-09-24T23:21:34.021Z,52.50
2022-09-24T23:24:12.573Z,52.72
2022-09-24T23:26:39.492Z,52.44
2022-09-24T23:29:06.940Z,52.55
2022-09-24T23:31:35.988Z,52.49
2022-09-24T23:34:04.180Z,52.57
2022-09-24T23:36:32.721Z,52.38
2022-09-24T23:39:01.008Z,51.79
2022-09-24T23:41:30.016Z,51.88
2022-09-24T23:43:57.267Z,51.25
2022-09-24T23:46:24.572Z,51.01
2022-09-24T23:48:51.651Z,51.45
2022-09-24T23:51:18.855Z,51.12
2022-09-24T23:53:45.877Z,50.98
2022-09-24T23:56:13.580Z,51.35
2022-09-24T23:58:42.223Z,51.93
